Time;durP1;ratioP1;P1;durP2;ratioP2;P2;SDS_P1;SDS_P2;PMS_P1;PMS_P2;Temp;Humidity;BMP_temperature;BMP_pressure;BME280_temperature;BME280_humidity;BME280_pressure;Samples;Min_cycle;Max_cycle;Signal;HPM_P1;HPM_P2
2022/12/25 00:00:05;;;;;;;16.77;12.40;;;24.30;71.40;;;;;;5043963;28;20646;-69
2022/12/25 00:02:33;;;;;;;16.17;10.83;;;24.40;70.80;;;;;;5052961;28;20560;-68
2022/12/25 00:05:00;;;;;;;15.73;10.73;;;24.70;69.60;;;;;;5054179;28;20176;-69
2022/12/25 00:07:27;;;;;;;14.67;11.83;;;24.40;70.80;;;;;;5048676;28;20180;-67
2022/12/25 00:09:55;;;;;;;15.37;11.57;;;24.80;69.20;;;;;;5045330;28;20176;-68
2022/12/25 00:12:22;;;;;;;15.70;10.67;;;25.30;68.10;;;;;;5054832;28;20275;-69
2022/12/25 00:14:49;;;;;;;15.03;11.67;;;25.80;66.10;;;;;;5053715;28;20176;-67
2022/12/25 00:17:17;;;;;;;13.27;10.17;;;25.60;66.20;;;;;;5051625;28;20226;-69
2022/12/25 00:19:44;;;;;;;19.23;10.93;;;25.50;66.50;;;;;;5050238;28;20223;-67
2022/12/25 00:22:11;;;;;;;17.70;12.87;;;25.60;65.40;;;;;;5045326;28;20251;-69
2022/12/25 00:24:39;;;;;;;14.17;10.60;;;25.30;67.10;;;;;;5052547;28;20180;-68
2022/12/25 00:27:06;;;;;;;19.53;11.70;;;25.30;66.70;;;;;;5054447;28;20230;-68
2022/12/25 00:29:33;;;;;;;19.23;12.43;;;25.30;67.20;;;;;;5044410;28;20560;-68
2022/12/25 00:32:01;;;;;;;19.30;11.20;;;25.30;67.60;;;;;;5046255;28;20184;-73
2022/12/25 00:34:28;;;;;;;17.53;11.90;;;25.60;65.90;;;;;;5044409;28;20184;-68
2022/12/25 00:36:55;;;;;;;16.40;12.13;;;25.80;65.50;;;;;;5053638;28;20176;-67
2022/12/25 00:39:23;;;;;;;18.93;12.50;;;26.10;66.10;;;;;;5052008;28;20234;-67
2022/12/25 00:44:35;;;;;;;14.00;10.83;;;26.60;64.30;;;;;;5050464;28;20697;-67
2022/12/25 00:47:03;;;;;;;18.33;10.80;;;26.60;63.10;;;;;;5053676;28;20188;-68
2022/12/25 00:49:34;;;;;;;16.47;10.90;;;26.80;63.30;;;;;;5053414;28;20220;-69
2022/12/25 00:52:01;;;;;;;17.17;11.10;;;26.60;62.60;;;;;;5042828;28;20187;-69
2022/12/25 00:54:28;;;;;;;12.27;10.53;;;26.60;63.60;;;;;;5042142;28;20202;-67
2022/12/25 00:56:55;;;;;;;13.23;9.80;;;26.90;62.40;;;;;;5052975;28;20226;-71
2022/12/25 00:59:23;;;;;;;16.93;10.53;;;26.60;61.60;;;;;;5052208;28;20188;-67
2022/12/25 01:01:50;;;;;;;21.67;10.50;;;26.70;62.80;;;;;;5053406;28;20759;-67
2022/12/25 01:04:17;;;;;;;13.77;10.97;;;27.00;61.30;;;;;;5053465;28;20179;-68
2022/12/25 01:06:45;;;;;;;13.23;10.27;;;26.80;62.10;;;;;;5044273;28;20184;-68
2022/12/25 01:11:57;;;;;;;11.83;10.03;;;27.10;62.10;;;;;;5052110;28;20551;-68
2022/12/25 01:14:25;;;;;;;17.63;10.60;;;27.40;60.80;;;;;;5044376;28;20183;-75
2022/12/25 01:16:52;;;;;;;14.00;9.57;;;27.70;59.30;;;;;;5065685;28;20217;-71
2022/12/25 01:19:19;;;;;;;13.80;9.37;;;27.60;58.70;;;;;;5053392;28;20180;-72
2022/12/25 01:21:47;;;;;;;14.00;9.27;;;27.80;59.00;;;;;;5051636;28;20216;-74
2022/12/25 01:24:14;;;;;;;13.60;9.40;;;27.70;58.50;;;;;;5052115;28;20174;-75
2022/12/25 01:26:41;;;;;;;16.77;9.57;;;27.80;59.30;;;;;;5053322;28;20187;-75
2022/12/25 01:29:09;;;;;;;14.50;9.73;;;28.00;58.50;;;;;;5052896;28;20188;-69
2022/12/25 01:31:36;;;;;;;14.77;8.90;;;28.30;57.60;;;;;;5052950;28;20540;-72
2022/12/25 01:34:03;;;;;;;11.50;9.87;;;28.00;57.80;;;;;;5053376;28;20174;-70
2022/12/25 01:36:30;;;;;;;16.40;9.97;;;28.30;57.40;;;;;;5053165;28;20191;-69
2022/12/25 01:38:58;;;;;;;13.33;10.70;;;28.10;56.70;;;;;;5052576;28;20203;-69
2022/12/25 01:41:26;;;;;;;16.93;10.87;;;27.80;58.70;;;;;;5052990;28;20283;-68
2022/12/25 01:44:27;;;;;;;18.17;11.87;;;28.00;58.90;;;;;;5042768;28;20716;-68
2022/12/25 01:46:54;;;;;;;17.53;11.30;;;28.70;57.70;;;;;;5045835;28;20245;-70
2022/12/25 01:49:24;;;;;;;13.03;10.17;;;29.10;56.70;;;;;;5052887;28;20212;-69
2022/12/25 01:52:02;;;;;;;15.33;9.77;;;28.80;55.50;;;;;;5052940;28;20183;-69
2022/12/25 01:54:55;;;;;;;14.67;9.43;;;28.40;57.70;;;;;;5053054;28;20168;-68
2022/12/25 01:57:31;;;;;;;12.70;11.37;;;28.00;59.40;;;;;;5052439;28;20183;-68
2022/12/25 02:00:00;;;;;;;16.50;10.43;;;28.50;58.20;;;;;;5052700;28;20267;-70
2022/12/25 02:02:28;;;;;;;16.67;11.23;;;28.40;57.50;;;;;;5052943;28;20208;-72
2022/12/25 02:05:33;;;;;;;16.33;12.37;;;28.00;59.80;;;;;;5052817;28;20267;-73
2022/12/25 02:08:14;;;;;;;16.23;12.03;;;28.60;58.30;;;;;;5052834;28;20187;-72
2022/12/25 02:10:43;;;;;;;12.90;11.60;;;28.90;57.00;;;;;;5052785;28;20172;-72
2022/12/25 02:13:16;;;;;;;12.40;11.10;;;28.90;57.00;;;;;;5051992;28;20717;-68
2022/12/25 02:16:12;;;;;;;14.57;12.20;;;28.90;57.60;;;;;;5052584;28;20638;-68
2022/12/25 02:18:48;;;;;;;17.23;11.73;;;29.60;56.00;;;;;;5052486;28;20176;-71
2022/12/25 02:21:18;;;;;;;17.90;12.20;;;29.40;54.80;;;;;;5051101;28;20207;-67
2022/12/25 02:24:22;;;;;;;14.63;11.80;;;28.90;56.50;;;;;;5052790;28;20639;-73
2022/12/25 02:27:11;;;;;;;16.93;12.67;;;29.10;56.50;;;;;;5052655;28;20255;-69
2022/12/25 02:30:07;;;;;;;17.00;13.13;;;29.20;55.70;;;;;;5052504;28;20642;-67
2022/12/25 02:35:50;;;;;;;13.67;11.37;;;28.90;56.70;;;;;;5056879;28;20205;-67
2022/12/25 02:38:32;;;;;;;15.40;11.40;;;29.30;56.30;;;;;;5056694;28;20198;-69
2022/12/25 02:41:06;;;;;;;16.40;10.43;;;29.30;55.80;;;;;;5056506;28;20203;-68
2022/12/25 03:06:42;;;;;;;12.10;9.85;;;29.90;53.60;;;;;;5056394;28;20195;-67
2022/12/25 03:12:43;;;;;;;12.50;9.48;;;29.70;54.50;;;;;;5033348;28;20671;-67
2022/12/25 03:18:01;;;;;;;11.93;9.60;;;29.30;55.20;;;;;;5044146;28;20210;-68
2022/12/25 03:28:53;;;;;;;17.73;9.95;;;29.50;54.60;;;;;;5055368;28;20190;-68
2022/12/25 03:31:38;;;;;;;13.70;11.03;;;30.00;53.80;;;;;;5055580;28;20203;-72
2022/12/25 03:38:08;;;;;;;15.60;10.70;;;29.50;55.60;;;;;;5055267;28;20760;-68
2022/12/25 04:36:58;;;;;;;10.35;9.35;;;30.30;53.80;;;;;;5054341;28;20667;-68
2022/12/25 04:39:25;;;;;;;10.43;9.33;;;30.50;53.40;;;;;;5054351;28;20184;-69
2022/12/25 04:41:52;;;;;;;10.38;8.98;;;30.30;54.60;;;;;;5053716;28;20212;-68
2022/12/25 04:44:20;;;;;;;11.40;8.63;;;30.80;52.70;;;;;;5053012;28;20168;-68
2022/12/25 04:46:47;;;;;;;9.90;8.90;;;30.60;52.90;;;;;;5053328;28;20192;-68
2022/12/25 04:49:14;;;;;;;10.15;9.13;;;30.50;53.60;;;;;;5065146;28;20357;-70
2022/12/25 04:51:41;;;;;;;9.70;8.75;;;29.60;56.30;;;;;;5054034;28;20654;-68
2022/12/25 04:54:09;;;;;;;10.10;9.10;;;30.60;52.70;;;;;;5054125;28;20176;-68
2022/12/25 04:56:36;;;;;;;9.82;8.77;;;29.90;54.80;;;;;;5053021;28;20253;-68
2022/12/25 04:59:04;;;;;;;10.02;9.02;;;30.50;54.10;;;;;;5054415;28;20172;-69
2022/12/25 05:01:31;;;;;;;8.63;7.72;;;30.80;53.00;;;;;;5053486;28;20298;-67
2022/12/25 05:03:58;;;;;;;8.43;7.20;;;31.10;52.30;;;;;;5040818;28;20515;-68
2022/12/25 05:06:26;;;;;;;9.95;7.75;;;31.20;52.50;;;;;;5053769;28;20237;-67
2022/12/25 05:08:53;;;;;;;8.10;7.15;;;30.80;53.30;;;;;;5057075;28;20171;-69
2022/12/25 05:11:21;;;;;;;10.85;7.10;;;29.80;56.00;;;;;;5052925;28;20604;-67
2022/12/25 05:13:48;;;;;;;9.90;7.25;;;30.10;55.10;;;;;;5053389;28;20180;-69
2022/12/25 05:16:20;;;;;;;11.93;7.15;;;30.50;54.50;;;;;;5052131;28;20176;-69
2022/12/25 05:18:51;;;;;;;9.50;6.80;;;30.40;54.70;;;;;;5045387;28;20180;-67
2022/12/25 05:21:19;;;;;;;8.05;6.70;;;31.00;54.00;;;;;;5053728;28;20200;-68
2022/12/25 05:23:51;;;;;;;10.20;6.70;;;31.10;53.80;;;;;;5053678;28;20180;-68
2022/12/25 05:26:22;;;;;;;9.80;5.70;;;31.00;54.60;;;;;;5052616;28;20515;-67
2022/12/25 05:28:50;;;;;;;8.85;6.20;;;31.40;53.30;;;;;;5053053;28;20180;-67
2022/12/25 05:31:18;;;;;;;10.93;6.00;;;30.80;55.00;;;;;;5053088;28;20919;-67
2022/12/25 05:33:49;;;;;;;8.98;5.50;;;30.60;55.80;;;;;;5053117;28;20528;-68
2022/12/25 05:36:16;;;;;;;8.60;5.65;;;30.80;54.80;;;;;;5053290;28;20172;-67
2022/12/25 05:38:43;;;;;;;6.70;5.00;;;30.30;56.00;;;;;;5053744;28;20180;-67
2022/12/25 05:41:11;;;;;;;10.52;5.75;;;30.10;57.00;;;;;;5046831;28;20212;-68
2022/12/25 05:43:38;;;;;;;7.00;5.35;;;30.30;56.50;;;;;;5047126;28;20180;-67
2022/12/25 05:46:10;;;;;;;6.65;5.10;;;30.80;54.80;;;;;;5052600;28;20266;-67
2022/12/25 05:48:38;;;;;;;7.28;5.18;;;30.30;56.30;;;;;;5059520;28;20634;-68
2022/12/25 05:51:08;;;;;;;7.35;5.07;;;30.70;54.90;;;;;;5053632;28;20231;-68
2022/12/25 05:53:35;;;;;;;8.80;5.45;;;30.30;55.90;;;;;;5052972;28;20275;-71
2022/12/25 05:56:05;;;;;;;12.10;4.78;;;30.00;56.40;;;;;;5053291;28;20178;-67
2022/12/25 05:58:34;;;;;;;8.40;4.72;;;30.20;56.80;;;;;;5055752;28;20183;-71
2022/12/25 06:01:01;;;;;;;7.18;4.57;;;30.40;56.10;;;;;;5045091;28;20202;-77
2022/12/25 06:03:28;;;;;;;8.55;4.85;;;29.90;57.20;;;;;;5052417;28;20203;-73
2022/12/25 06:05:56;;;;;;;7.97;4.55;;;29.90;57.40;;;;;;5052511;28;20176;-70
2022/12/25 06:08:23;;;;;;;8.95;4.20;;;30.40;56.40;;;;;;5047026;28;20180;-67
2022/12/25 06:10:50;;;;;;;7.40;4.55;;;30.80;56.00;;;;;;5042832;28;20536;-77
2022/12/25 06:13:17;;;;;;;7.00;4.07;;;31.00;55.60;;;;;;5062898;28;20172;-68
2022/12/25 06:15:45;;;;;;;6.60;3.90;;;31.60;54.30;;;;;;5050302;28;20219;-70
2022/12/25 06:18:12;;;;;;;5.72;3.70;;;31.10;55.50;;;;;;5052756;28;20184;-70
2022/12/25 06:20:42;;;;;;;7.47;3.85;;;30.10;57.50;;;;;;5051485;28;20172;-78
2022/12/25 06:23:10;;;;;;;5.65;3.50;;;30.20;57.30;;;;;;5051928;28;20171;-77
2022/12/25 06:25:40;;;;;;;5.82;3.90;;;29.90;59.30;;;;;;5052679;28;20630;-72
2022/12/25 06:28:08;;;;;;;6.07;4.10;;;29.90;58.60;;;;;;5051978;28;20205;-74
2022/12/25 06:30:35;;;;;;;4.88;3.85;;;29.90;58.80;;;;;;5053094;28;20172;-67
2022/12/25 06:33:03;;;;;;;7.32;3.88;;;30.60;56.80;;;;;;5049304;28;20175;-68
2022/12/25 06:35:30;;;;;;;7.68;3.92;;;30.80;56.40;;;;;;5049409;28;20249;-76
2022/12/25 06:37:57;;;;;;;5.15;3.92;;;30.90;56.10;;;;;;5050616;28;20183;-75
2022/12/25 06:40:25;;;;;;;6.95;3.85;;;31.20;55.10;;;;;;5051211;28;20766;-72
2022/12/25 06:42:52;;;;;;;6.50;4.30;;;30.80;56.30;;;;;;5051783;28;20180;-68
2022/12/25 06:45:19;;;;;;;7.65;4.65;;;30.50;57.40;;;;;;5048197;28;20176;-75
2022/12/25 06:47:47;;;;;;;5.13;4.20;;;30.70;56.10;;;;;;5050609;28;20195;-70
2022/12/25 06:50:14;;;;;;;7.38;3.70;;;30.40;56.90;;;;;;5046217;28;20639;-77
2022/12/25 06:52:41;;;;;;;4.57;3.85;;;30.60;57.50;;;;;;5050460;28;20226;-66
2022/12/25 06:55:09;;;;;;;6.72;4.22;;;30.60;55.20;;;;;;5050596;28;20504;-67
2022/12/25 06:57:36;;;;;;;7.55;4.05;;;30.30;57.20;;;;;;5049598;28;20238;-68
2022/12/25 07:00:05;;;;;;;5.80;3.95;;;31.10;55.10;;;;;;5050265;28;20176;-74
2022/12/25 07:02:34;;;;;;;5.90;4.47;;;30.60;56.00;;;;;;5049476;28;20219;-67
2022/12/25 07:05:03;;;;;;;6.43;4.28;;;30.80;55.60;;;;;;5051167;28;20700;-67
2022/12/25 07:07:30;;;;;;;5.65;3.90;;;31.30;54.80;;;;;;5055218;28;20715;-69
2022/12/25 07:09:58;;;;;;;5.63;3.70;;;30.80;55.00;;;;;;5052098;28;20212;-67
2022/12/25 07:12:26;;;;;;;5.72;3.95;;;30.50;56.20;;;;;;5051651;28;20180;-67
2022/12/25 07:14:54;;;;;;;9.10;4.60;;;30.90;53.80;;;;;;5063997;28;20184;-67
2022/12/25 07:17:23;;;;;;;9.32;4.35;;;31.00;54.60;;;;;;5051608;28;20180;-68
2022/12/25 07:19:50;;;;;;;7.10;4.18;;;30.00;56.10;;;;;;5053234;28;20182;-67
2022/12/25 07:22:18;;;;;;;7.82;3.88;;;29.70;57.80;;;;;;5055787;28;20223;-68
2022/12/25 07:24:45;;;;;;;6.15;4.00;;;29.30;58.80;;;;;;5049890;28;20176;-76
2022/12/25 07:27:12;;;;;;;5.87;4.03;;;28.30;61.40;;;;;;5052378;28;20206;-67
2022/12/25 07:29:40;;;;;;;6.70;4.87;;;27.80;63.40;;;;;;5049426;28;20177;-68
2022/12/25 07:32:07;;;;;;;7.70;4.10;;;27.80;63.00;;;;;;5050952;28;20172;-68
2022/12/25 07:34:35;;;;;;;6.90;4.00;;;27.30;64.90;;;;;;5054534;28;20257;-68
2022/12/25 07:37:02;;;;;;;6.00;4.00;;;27.40;64.80;;;;;;5049162;28;20180;-68
2022/12/25 07:39:29;;;;;;;5.50;3.47;;;27.30;65.40;;;;;;5053017;28;20661;-69
2022/12/25 07:41:57;;;;;;;4.10;3.43;;;27.30;65.60;;;;;;5054815;28;20204;-68
2022/12/25 07:44:24;;;;;;;5.67;3.93;;;27.30;66.60;;;;;;5055121;28;20756;-70
2022/12/25 07:46:51;;;;;;;5.47;3.87;;;27.00;67.90;;;;;;5055382;28;20187;-66
2022/12/25 07:49:18;;;;;;;8.47;3.73;;;26.90;68.40;;;;;;5054562;28;20207;-67
2022/12/25 07:51:46;;;;;;;4.67;4.00;;;26.80;67.50;;;;;;5055118;28;20184;-68
2022/12/25 07:54:13;;;;;;;5.87;3.70;;;26.70;67.50;;;;;;5055902;28;20233;-67
2022/12/25 07:56:40;;;;;;;8.87;4.03;;;26.50;69.60;;;;;;5054589;28;20207;-66
2022/12/25 07:59:08;;;;;;;5.40;4.03;;;26.60;70.10;;;;;;5054641;28;20204;-67
2022/12/25 08:01:35;;;;;;;6.80;3.90;;;26.50;70.20;;;;;;5050567;28;20649;-67
2022/12/25 08:04:03;;;;;;;8.97;4.13;;;26.50;71.10;;;;;;5055123;28;20199;-67
2022/12/25 08:06:33;;;;;;;5.57;3.90;;;26.40;70.70;;;;;;5054555;28;20183;-67
2022/12/25 08:09:07;;;;;;;4.77;3.77;;;26.50;70.70;;;;;;5054579;28;20168;-68
2022/12/25 08:11:35;;;;;;;4.93;4.00;;;26.30;70.80;;;;;;5048839;28;20226;-75
2022/12/25 08:14:05;;;;;;;6.93;4.00;;;26.30;70.90;;;;;;5052400;28;20180;-72
2022/12/25 08:16:33;;;;;;;4.83;4.40;;;25.90;73.10;;;;;;5054830;28;20207;-77
2022/12/25 08:19:00;;;;;;;5.83;4.53;;;25.80;73.80;;;;;;5053020;28;20674;-75
2022/12/25 08:21:27;;;;;;;4.47;3.97;;;25.80;73.60;;;;;;5065085;28;20211;-73
2022/12/25 08:23:55;;;;;;;6.57;4.00;;;25.90;73.20;;;;;;5056773;28;20172;-75
2022/12/25 08:26:23;;;;;;;5.83;3.87;;;25.80;72.50;;;;;;5048115;28;20239;-83
2022/12/25 08:28:51;;;;;;;5.57;4.63;;;25.70;72.90;;;;;;5048802;28;20600;-77
2022/12/25 08:31:24;;;;;;;6.47;4.17;;;25.50;74.00;;;;;;5053168;28;20657;-73
2022/12/25 08:33:54;;;;;;;5.30;4.67;;;25.40;74.20;;;;;;5054072;28;20188;-81
2022/12/25 08:36:22;;;;;;;5.80;4.57;;;25.20;74.60;;;;;;5055905;28;20538;-72
2022/12/25 08:38:50;;;;;;;6.47;4.53;;;25.10;75.00;;;;;;5049982;28;20180;-77
2022/12/25 08:41:18;;;;;;;6.50;4.33;;;24.90;75.50;;;;;;5041785;28;20749;-74
2022/12/25 08:43:46;;;;;;;7.17;4.07;;;24.60;76.60;;;;;;5052104;28;20194;-79
2022/12/25 08:46:14;;;;;;;7.17;4.23;;;24.60;76.80;;;;;;5044017;28;20177;-68
2022/12/25 08:48:46;;;;;;;5.10;4.43;;;24.40;77.20;;;;;;5050592;28;20179;-77
2022/12/25 08:51:16;;;;;;;7.17;4.23;;;24.40;77.50;;;;;;5052604;28;20243;-71
2022/12/25 08:53:45;;;;;;;5.13;4.57;;;24.30;78.20;;;;;;5045803;28;20199;-79
2022/12/25 08:56:13;;;;;;;8.07;5.10;;;24.10;78.70;;;;;;5050601;28;20184;-71
2022/12/25 08:58:41;;;;;;;9.47;5.57;;;24.00;79.40;;;;;;5051441;28;20191;-75
2022/12/25 09:01:09;;;;;;;8.30;5.50;;;24.10;79.50;;;;;;5052513;28;20250;-68
2022/12/25 09:03:37;;;;;;;7.57;5.50;;;23.90;79.70;;;;;;5050607;28;20650;-76
2022/12/25 09:06:07;;;;;;;8.67;6.00;;;23.90;79.80;;;;;;5052105;28;20184;-81
2022/12/25 09:08:35;;;;;;;6.77;6.00;;;23.80;80.00;;;;;;5053339;28;20176;-67
2022/12/25 09:11:13;;;;;;;8.40;6.27;;;23.90;80.60;;;;;;5052915;28;20184;-68
2022/12/25 09:13:41;;;;;;;7.63;5.57;;;23.80;81.30;;;;;;5039617;28;20184;-69
2022/12/25 09:16:11;;;;;;;8.53;5.93;;;23.80;81.70;;;;;;5051123;28;20187;-67
2022/12/25 09:18:39;;;;;;;7.53;5.67;;;23.70;81.90;;;;;;5051399;28;20647;-69
2022/12/25 09:21:09;;;;;;;8.17;5.90;;;23.80;81.60;;;;;;5051170;28;20199;-68
2022/12/25 09:23:37;;;;;;;7.80;6.17;;;23.60;82.10;;;;;;5058564;28;20195;-69
2022/12/25 09:26:07;;;;;;;7.97;6.13;;;23.60;82.30;;;;;;5047070;28;20523;-67
2022/12/25 09:28:34;;;;;;;7.37;6.33;;;23.50;82.70;;;;;;5052220;28;20179;-68
2022/12/25 09:31:02;;;;;;;9.07;6.23;;;23.50;83.10;;;;;;5051047;28;20188;-70
2022/12/25 09:33:29;;;;;;;10.17;6.57;;;23.40;83.40;;;;;;5050730;28;20179;-68
2022/12/25 09:36:02;;;;;;;9.20;5.90;;;23.40;83.60;;;;;;5055699;28;20191;-69
2022/12/25 09:38:30;;;;;;;9.57;6.03;;;23.40;83.50;;;;;;5051628;28;20183;-67
2022/12/25 09:41:03;;;;;;;9.03;5.70;;;23.40;83.50;;;;;;5051024;28;20237;-69
2022/12/25 09:43:36;;;;;;;8.87;5.83;;;23.30;83.60;;;;;;5049980;28;20538;-67
2022/12/25 09:46:07;;;;;;;7.20;5.40;;;23.30;83.80;;;;;;5051622;28;20180;-67
2022/12/25 09:48:39;;;;;;;9.07;5.73;;;23.30;84.10;;;;;;5049190;28;20180;-69
2022/12/25 09:51:12;;;;;;;11.60;5.93;;;23.30;84.50;;;;;;5052749;28;20272;-68
2022/12/25 09:53:49;;;;;;;10.30;6.43;;;23.30;84.40;;;;;;5053519;28;20186;-67
2022/12/25 09:56:26;;;;;;;11.27;6.17;;;23.30;84.30;;;;;;5051287;28;20543;-67
2022/12/25 09:58:54;;;;;;;8.67;5.63;;;23.30;84.50;;;;;;5050047;28;20191;-68
2022/12/25 10:01:31;;;;;;;9.20;5.23;;;23.30;84.50;;;;;;5051361;28;20230;-74
2022/12/25 10:04:14;;;;;;;9.30;5.77;;;23.30;84.90;;;;;;5051533;28;20499;-71
2022/12/25 10:07:30;;;;;;;8.10;5.27;;;23.30;84.90;;;;;;5051787;28;20190;-75
2022/12/25 10:10:12;;;;;;;6.60;5.30;;;23.20;85.00;;;;;;5058604;28;20176;-82
2022/12/25 10:13:15;;;;;;;9.03;5.47;;;23.20;85.30;;;;;;5050827;28;20282;-75
2022/12/25 10:15:57;;;;;;;8.33;5.63;;;23.10;85.20;;;;;;5043845;28;20195;-74
2022/12/25 10:18:43;;;;;;;8.20;5.00;;;23.10;85.60;;;;;;5050083;28;20175;-77
2022/12/25 10:21:16;;;;;;;7.60;4.53;;;23.00;85.70;;;;;;5049507;28;20569;-70
2022/12/25 10:24:10;;;;;;;13.83;5.17;;;23.00;85.10;;;;;;5051880;28;20318;-69
2022/12/25 10:26:37;;;;;;;6.67;5.10;;;23.00;85.30;;;;;;5048391;28;20194;-79
2022/12/25 10:29:18;;;;;;;8.53;5.17;;;23.00;85.30;;;;;;5049305;28;20317;-76
2022/12/25 10:31:52;;;;;;;7.10;5.37;;;23.00;85.50;;;;;;5051477;28;20274;-75
2022/12/25 10:34:19;;;;;;;8.20;4.87;;;23.00;85.40;;;;;;5051493;28;20179;-76
2022/12/25 10:36:48;;;;;;;12.37;4.90;;;23.00;85.90;;;;;;5049860;28;20589;-76
2022/12/25 10:39:24;;;;;;;10.43;4.70;;;23.00;86.20;;;;;;5047478;28;20183;-78
2022/12/25 10:42:22;;;;;;;9.20;5.70;;;22.90;86.40;;;;;;5048401;28;20218;-70
2022/12/25 10:45:05;;;;;;;10.23;6.07;;;22.90;86.70;;;;;;5047640;28;20609;-78
2022/12/25 10:47:36;;;;;;;7.77;5.73;;;22.90;87.20;;;;;;5057576;28;20248;-71
2022/12/25 10:50:10;;;;;;;8.97;5.60;;;22.80;87.20;;;;;;5050113;28;20231;-78
2022/12/25 10:53:08;;;;;;;10.90;4.87;;;22.80;87.20;;;;;;5050963;28;20220;-69
2022/12/25 10:55:35;;;;;;;11.33;5.10;;;22.80;87.50;;;;;;5050852;28;20206;-71
2022/12/25 10:58:02;;;;;;;12.17;4.93;;;22.80;87.70;;;;;;5055936;28;20234;-84
2022/12/25 11:00:32;;;;;;;8.33;4.37;;;22.80;87.60;;;;;;5055972;28;20200;-76
2022/12/25 11:02:59;;;;;;;9.07;4.27;;;22.80;87.60;;;;;;5058800;28;20544;-70
2022/12/25 11:05:33;;;;;;;13.07;4.17;;;22.80;87.70;;;;;;5055675;28;20212;-75
2022/12/25 11:08:02;;;;;;;10.53;4.30;;;22.70;87.90;;;;;;5056660;28;20651;-78
2022/12/25 11:10:42;;;;;;;11.93;4.27;;;22.80;87.90;;;;;;5063894;28;20168;-74
2022/12/25 11:13:30;;;;;;;11.70;4.27;;;22.70;87.90;;;;;;5057402;28;20184;-77
2022/12/25 11:16:12;;;;;;;11.47;4.20;;;22.60;88.00;;;;;;5050864;28;20582;-68
2022/12/25 11:18:51;;;;;;;18.03;5.00;;;22.60;88.00;;;;;;5058960;28;20190;-68
2022/12/25 11:21:18;;;;;;;12.37;4.30;;;22.60;88.00;;;;;;5055446;28;20211;-72
2022/12/25 11:24:01;;;;;;;13.37;3.80;;;22.60;88.30;;;;;;5055935;28;20176;-68
2022/12/25 11:26:49;;;;;;;14.43;4.13;;;22.60;88.30;;;;;;5055493;28;20183;-71
2022/12/25 11:29:46;;;;;;;11.60;4.03;;;22.60;88.40;;;;;;5061772;28;20180;-80
2022/12/25 11:32:29;;;;;;;11.37;4.10;;;22.60;88.50;;;;;;5055648;28;20183;-83
2022/12/25 11:34:58;;;;;;;12.30;3.93;;;22.60;88.50;;;;;;5055892;28;20203;-75
2022/12/25 11:37:44;;;;;;;10.77;3.80;;;22.60;88.50;;;;;;5055979;28;20204;-67
2022/12/25 11:40:44;;;;;;;15.57;4.20;;;22.50;88.60;;;;;;5058451;28;20203;-68
2022/12/25 11:43:15;;;;;;;11.77;3.70;;;22.50;88.60;;;;;;5054985;28;20579;-67
2022/12/25 11:45:50;;;;;;;18.47;5.50;;;22.50;88.70;;;;;;5054956;28;20259;-68
2022/12/25 11:48:29;;;;;;;9.93;3.90;;;22.50;88.70;;;;;;5055429;28;20507;-69
2022/12/25 11:50:59;;;;;;;14.30;3.67;;;22.50;88.90;;;;;;5054719;28;20211;-73
2022/12/25 11:53:51;;;;;;;12.07;3.37;;;22.40;88.70;;;;;;5055833;28;20321;-71
2022/12/25 11:56:20;;;;;;;14.67;3.23;;;22.40;88.90;;;;;;5061408;28;20313;-75
2022/12/25 11:59:03;;;;;;;12.40;3.53;;;22.40;88.80;;;;;;5072704;28;20655;-81
2022/12/25 12:02:04;;;;;;;14.83;3.70;;;22.40;88.80;;;;;;5054586;28;20207;-76
2022/12/25 12:04:39;;;;;;;12.63;3.63;;;22.40;88.80;;;;;;5049611;28;20665;-70
2022/12/25 12:07:07;;;;;;;10.83;3.57;;;22.40;88.80;;;;;;5055806;28;20176;-70
2022/12/25 12:09:37;;;;;;;16.60;3.80;;;22.40;88.80;;;;;;5055538;28;20210;-77
2022/12/25 12:12:27;;;;;;;12.97;3.13;;;22.40;88.90;;;;;;5054867;28;20210;-70
2022/12/25 12:14:57;;;;;;;14.10;3.23;;;22.40;88.90;;;;;;5059137;28;20460;-71
2022/12/25 12:17:24;;;;;;;13.33;3.30;;;22.30;89.10;;;;;;5054536;28;20175;-70
2022/12/25 12:19:52;;;;;;;16.20;3.60;;;22.30;89.00;;;;;;5054378;28;20381;-73
2022/12/25 12:22:26;;;;;;;11.60;3.47;;;22.30;89.00;;;;;;5056196;28;20215;-69
2022/12/25 12:25:04;;;;;;;12.53;3.10;;;22.30;88.80;;;;;;5055569;28;20314;-68
2022/12/25 12:27:39;;;;;;;12.70;3.20;;;22.30;88.90;;;;;;5054652;28;20218;-69
2022/12/25 12:30:22;;;;;;;15.70;3.43;;;22.30;88.90;;;;;;5054268;28;20657;-69
2022/12/25 12:33:01;;;;;;;10.63;2.80;;;22.30;88.90;;;;;;5052041;28;20266;-69
2022/12/25 12:35:30;;;;;;;14.17;3.10;;;22.30;89.00;;;;;;5062111;28;20655;-68
2022/12/25 12:38:03;;;;;;;19.27;3.60;;;22.30;89.00;;;;;;5054383;28;20184;-68
2022/12/25 12:40:38;;;;;;;14.63;3.10;;;22.30;89.00;;;;;;5050146;28;20542;-67
2022/12/25 12:43:22;;;;;;;11.80;3.60;;;22.30;88.90;;;;;;5052200;28;20184;-69
2022/12/25 12:45:56;;;;;;;15.80;3.30;;;22.30;89.00;;;;;;5057365;28;20215;-67
2022/12/25 12:48:29;;;;;;;18.97;3.30;;;22.30;89.10;;;;;;5044222;28;20226;-68
2022/12/25 12:51:08;;;;;;;14.07;3.10;;;22.30;89.20;;;;;;5053780;28;20602;-68
2022/12/25 12:53:37;;;;;;;11.73;3.00;;;22.20;89.30;;;;;;5052153;28;20246;-68
2022/12/25 12:56:13;;;;;;;17.27;4.43;;;22.30;89.40;;;;;;5057720;28;20656;-69
2022/12/25 12:58:47;;;;;;;19.10;3.60;;;22.20;89.50;;;;;;5051672;28;20549;-68
2022/12/25 13:01:34;;;;;;;12.40;3.37;;;22.20;89.40;;;;;;5053686;28;20207;-69
2022/12/25 13:04:02;;;;;;;17.07;3.43;;;22.20;89.40;;;;;;5051908;28;20176;-69
2022/12/25 13:06:58;;;;;;;19.53;3.37;;;22.20;89.50;;;;;;5060066;28;20183;-68
2022/12/25 13:10:06;;;;;;;10.47;2.67;;;22.20;89.40;;;;;;5048467;28;20180;-69
2022/12/25 13:12:34;;;;;;;21.50;3.73;;;22.20;89.40;;;;;;5049711;28;20249;-68
2022/12/25 13:15:01;;;;;;;12.13;3.13;;;22.20;89.30;;;;;;5052878;28;20222;-70
2022/12/25 13:17:29;;;;;;;15.43;3.20;;;22.10;89.40;;;;;;5052318;28;20190;-68
2022/12/25 13:19:59;;;;;;;18.33;3.57;;;22.20;89.40;;;;;;5052765;28;20267;-69
2022/12/25 13:22:36;;;;;;;13.40;3.43;;;22.20;89.60;;;;;;5053669;28;20273;-69
2022/12/25 13:25:16;;;;;;;17.50;5.17;;;22.30;89.10;;;;;;5052671;28;20271;-69
2022/12/25 13:27:43;;;;;;;25.83;12.87;;;22.30;89.10;;;;;;5044237;28;20180;-69
2022/12/25 13:30:17;;;;;;;14.10;5.40;;;22.30;88.80;;;;;;5033551;28;20165;-69
2022/12/25 13:32:44;;;;;;;14.50;3.60;;;22.30;88.90;;;;;;5049792;28;20194;-68
2022/12/25 13:35:16;;;;;;;15.20;3.20;;;22.20;89.00;;;;;;5052455;28;20623;-69
2022/12/25 13:37:45;;;;;;;18.00;3.73;;;22.30;88.80;;;;;;5052523;28;20612;-69
2022/12/25 13:40:27;;;;;;;13.43;3.63;;;22.20;89.20;;;;;;5052310;28;20180;-70
2022/12/25 13:42:59;;;;;;;18.43;3.60;;;22.30;88.50;;;;;;5053238;28;20281;-69
2022/12/25 13:45:29;;;;;;;12.67;3.63;;;22.20;89.00;;;;;;5054319;28;20186;-68
2022/12/25 13:47:58;;;;;;;14.93;3.47;;;22.10;89.20;;;;;;5044642;28;20212;-81
2022/12/25 13:50:34;;;;;;;16.50;3.60;;;22.10;89.40;;;;;;5052527;28;20690;-81
2022/12/25 13:53:13;;;;;;;14.60;3.57;;;22.10;89.20;;;;;;5052276;28;20171;-78
2022/12/25 13:55:43;;;;;;;17.43;3.53;;;22.10;89.20;;;;;;5042710;28;20192;-80
2022/12/25 13:58:23;;;;;;;15.63;3.20;;;22.00;89.30;;;;;;5053187;28;20176;-80
2022/12/25 14:00:53;;;;;;;15.80;3.17;;;22.00;89.50;;;;;;5052593;28;20219;-72
2022/12/25 14:03:33;;;;;;;18.00;3.53;;;21.90;89.50;;;;;;5053065;28;20515;-74
2022/12/25 14:06:07;;;;;;;19.33;3.70;;;21.90;89.80;;;;;;5051532;28;20191;-70
2022/12/25 14:08:35;;;;;;;14.47;3.30;;;21.90;89.70;;;;;;5051626;28;20519;-69
2022/12/25 14:11:05;;;;;;;12.17;3.60;;;21.90;89.80;;;;;;5051681;28;20195;-72
2022/12/25 14:13:37;;;;;;;13.00;3.40;;;21.90;89.90;;;;;;5051834;28;20176;-71
2022/12/25 14:16:05;;;;;;;15.47;3.57;;;21.90;89.80;;;;;;5052080;28;20634;-70
2022/12/25 14:18:34;;;;;;;13.97;3.10;;;22.00;90.00;;;;;;5052845;28;20677;-72
2022/12/25 14:21:16;;;;;;;17.20;3.67;;;21.90;89.50;;;;;;5041257;28;20204;-76
2022/12/25 14:23:46;;;;;;;14.73;3.20;;;21.90;89.40;;;;;;5038825;28;20603;-72
2022/12/25 14:26:21;;;;;;;15.13;3.17;;;22.00;89.30;;;;;;5052709;28;20164;-70
2022/12/25 14:28:50;;;;;;;17.37;3.43;;;21.80;89.20;;;;;;5051609;28;20180;-69
2022/12/25 14:31:19;;;;;;;17.27;3.63;;;21.80;89.80;;;;;;5051781;28;20266;-70
2022/12/25 14:33:47;;;;;;;16.83;3.77;;;21.80;89.80;;;;;;5054561;28;20627;-76
2022/12/25 14:36:15;;;;;;;10.73;2.80;;;21.80;89.60;;;;;;5052149;28;20176;-68
2022/12/25 14:38:42;;;;;;;12.90;3.37;;;21.70;89.60;;;;;;5051206;28;20237;-69
2022/12/25 14:41:42;;;;;;;14.40;3.43;;;21.60;89.50;;;;;;5051046;28;20282;-72
2022/12/25 14:44:35;;;;;;;15.23;2.90;;;21.50;89.50;;;;;;5052056;28;20263;-72
2022/12/25 14:47:18;;;;;;;14.37;3.17;;;21.50;89.80;;;;;;5051982;28;20175;-73
2022/12/25 14:49:47;;;;;;;16.27;3.60;;;21.40;89.80;;;;;;5044826;28;20224;-73
2022/12/25 14:52:27;;;;;;;14.13;2.60;;;21.30;89.90;;;;;;5041455;28;20212;-70